Strona główna
METAR-TAF:

METAR-TAF

Lotnisko :

Port lotniczy Pekin

Pekin, Chiny

Szerokość geograficzna: 39-56N, Długość geograficzna: 116-17E, wysokość: 55 m

Aktualna obserwacja pogody

Raport powstał 26 minut temu, godzina 14:00 UTC
Wiatr 10 kt od południowy wschód
Temperatura 25°C
Wilgotność 69%
Ciśnienie 1005 hPa
Widzialność 10 km lub więcej
Brak chmur poniżej 1500 m i brak chmur cumulonimbus

METAR: ZBAA 191400Z 13005MPS CAVOK 25/19 Q1005 NOSIG

czas: 22:26 (14:26 UTC)

Prognoza

Raport powstał 5 godziny i 6 minut temu, godzina 09:20 UTC
Prognoza ważna od 19 godzina 12 UTC do 20 godzina 12 UTC
Wiatr 8 kt od południowo-południowy wschód
Widzialność 10 km lub więcej
Brak chmur poniżej 1500 m i brak chmur cumulonimbus

TAF: ZBAA 190920Z 1912/2012 16004MPS CAVOK TX34/2007Z TN18/1921Z

Obserwacja i prognoza pogody dla ponad 4000 lotnisk (raport METAR i TAF).

Dostępne stacje oznaczono żółtymi i czerwonymi punktami na mapie.

Najedź kursorem aby zobaczyć nazwę stacji.

Kliknij aby zobaczyć obserwacje i prognozy pogody.

Aby zmienić mapę: kliknij na zielony przycisk z czarnym krzyżykiem, aby powiększyć; na zielony przycisk z myślnikiem, aby pomniejszyć; na zielone strzałki, aby przejść do map sąsiednich.


METAR-TAF: